EW4483 Weather Reports


Display with metric or nautical units.
time (UTC)temp
F
wind
direction
speed
MPH
gust
MPH
rain 1hr
in
rain 24hr
in
rain mn
in
humidity
%
barometer
mb
20190121123305 44 264 7.0 9.0 0.00 0.00 0.00 67 1012.7
20190121122804 44 270 6.0 10.0 0.00 0.00 0.00 66 1012.6
20190121122304 44 280 7.0 12.0 0.00 0.00 0.00 66 1012.6
20190121121803 44 279 8.0 13.0 0.00 0.00 0.00 66 1012.6
20190121121304 44 278 8.0 12.0 0.00 0.00 0.00 65 1012.5
20190121120807 44 279 7.0 12.0 0.00 0.00 0.00 65 1012.5
20190121120304 45 288 11.0 16.0 0.00 0.00 0.00 64 1012.4
20190121115804 44 303 9.0 15.0 0.00 0.00 0.00 64 1012.4
20190121115306 44 301 8.0 13.0 0.00 0.00 0.00 65 1012.3
20190121114804 45 299 8.0 12.0 0.00 0.00 0.00 64 1012.2
20190121114304 45 308 10.0 15.0 0.00 0.00 0.00 64 1012.2
20190121113804 45 316 9.0 13.0 0.00 0.00 0.00 64 1012.2
20190121113304 45 303 11.0 16.0 0.00 0.00 0.00 64 1012.2
20190121112807 45 302 8.0 15.0 0.00 0.00 0.00 65 1012.3
20190121112306 45 318 12.0 16.0 0.00 0.00 0.00 65 1012.3
20190121111804 44 319 9.0 13.0 0.00 0.00 0.00 66 1012.2
20190121111304 44 311 7.0 12.0 0.00 0.00 0.00 66 1012.2
20190121110804 44 310 7.0 12.0 0.00 0.00 0.00 66 1012.3
20190121105306 44 309 4.0 8.0 0.00 0.00 0.00 66 1012.5
20190121103805 44 311 5.0 9.0 0.00 0.00 0.00 66 1012.5
20190121103305 44 311 4.0 9.0 0.00 0.00 0.00 66 1012.5
20190121102804 44 304 5.0 9.0 0.00 0.00 0.00 65 1012.6
20190121102305 44 300 5.0 8.0 0.00 0.00 0.00 65 1012.7
20190121101807 45 295 5.0 9.0 0.00 0.00 0.00 65 1012.7
20190121101304 45 292 6.0 10.0 0.00 0.00 0.00 64 1012.7
20190121100804 45 301 6.0 12.0 0.00 0.00 0.00 64 1012.6
20190121100304 45 308 7.0 12.0 0.00 0.00 0.00 64 1012.6
20190121095804 45 302 9.0 15.0 0.00 0.00 0.00 64 1012.7
20190121095306 45 316 10.0 15.0 0.00 0.00 0.00 63 1012.7
20190121094804 45 300 11.0 16.0 0.00 0.00 0.00 62 1012.7
20190121094304 45 305 11.0 16.0 0.00 0.00 0.00 62 1012.8
20190121093804 45 316 8.0 13.0 0.00 0.00 0.00 62 1012.7
20190121093304 45 306 9.0 12.0 0.00 0.00 0.00 62 1012.8
20190121091804 45 298 8.0 14.0 0.00 0.00 0.00 61 1012.6
20190121091304 45 290 6.0 10.0 0.00 0.00 0.00 61 1012.6
20190121090804 45 294 10.0 15.0 0.00 0.00 0.00 60 1012.7
20190121090304 45 303 9.0 13.0 0.00 0.00 0.00 60 1012.8
20190121085805 45 301 11.0 20.0 0.00 0.00 0.00 60 1012.9
20190121085305 45 289 9.0 14.0 0.00 0.00 0.00 60 1013.0
20190121084804 45 305 10.0 16.0 0.00 0.00 0.00 60 1013.1
20190121084304 45 283 11.0 16.0 0.00 0.00 0.00 60 1013.1
20190121083804 45 281 10.0 18.0 0.00 0.00 0.00 59 1013.0
20190121083304 45 273 11.0 17.0 0.00 0.00 0.00 59 1012.9
20190121082804 45 282 11.0 20.0 0.00 0.00 0.00 59 1013.0
20190121082306 45 289 10.0 17.0 0.00 0.00 0.00 59 1013.0
20190121081804 46 277 10.0 20.0 0.00 0.00 0.00 59 1013.0
20190121081304 46 274 12.0 20.0 0.00 0.00 0.00 58 1012.8
20190121080804 46 274 12.0 17.0 0.00 0.00 0.00 58 1012.8
20190121080305 46 286 12.0 17.0 0.00 0.00 0.00 57 1012.8
20190121075803 46 283 11.0 16.0 0.00 0.00 0.00 57 1012.6
20190121075305 46 283 12.0 18.0 0.00 0.00 0.00 56 1012.8
20190121074804 47 296 14.0 22.0 0.00 0.00 0.00 56 1012.6
20190121074304 47 271 14.0 20.0 0.00 0.00 0.00 55 1012.5
20190121073803 47 271 13.0 18.0 0.00 0.00 0.00 56 1012.4
20190121073303 47 268 14.0 20.0 0.00 0.00 0.00 55 1012.4
20190121072804 47 295 16.0 22.0 0.00 0.00 0.00 54 1012.3
20190121072306 47 286 13.0 20.0 0.00 0.00 0.00 55 1012.3
20190121071805 47 268 14.0 20.0 0.00 0.00 0.00 54 1012.2
20190121071303 47 270 14.0 21.0 0.00 0.00 0.00 53 1012.1
20190121070805 47 279 14.0 22.0 0.00 0.00 0.00 53 1012.0
20190121070306 48 276 16.0 23.0 0.00 0.00 0.00 51 1012.0
20190121065805 48 271 17.0 25.0 0.00 0.00 0.00 50 1011.9
20190121065304 48 281 17.0 25.0 0.00 0.00 0.00 51 1012.0
20190121064807 48 254 16.0 23.0 0.00 0.00 0.00 51 1011.8
20190121064304 48 268 16.0 23.0 0.00 0.00 0.00 50 1011.8
20190121063804 49 258 17.0 24.0 0.00 0.00 0.00 50 1011.7
20190121063304 49 280 16.0 25.0 0.00 0.00 0.00 49 1011.6
20190121062804 50 256 18.0 25.0 0.00 0.00 0.00 49 1011.7
20190121062304 50 266 16.0 23.0 0.00 0.00 0.00 49 1011.6
20190121061804 49 294 16.0 24.0 0.00 0.00 0.00 47 1011.4
20190121061304 50 270 15.0 20.0 0.00 0.00 0.00 48 1011.3
20190121060804 50 272 16.0 24.0 0.00 0.00 0.00 47 1011.5
20190121060304 50 274 18.0 26.0 0.00 0.00 0.00 47 1011.4
20190121055804 50 282 13.0 20.0 0.00 0.00 0.00 47 1011.5
20190121055304 50 282 13.0 20.0 0.00 0.00 0.00 47 1011.3
20190121054804 50 293 13.0 22.0 0.00 0.00 0.00 47 1011.3
20190121054304 50 272 16.0 23.0 0.00 0.00 0.00 48 1011.3
20190121053804 50 281 16.0 22.0 0.00 0.00 0.00 48 1011.3
20190121053304 50 278 16.0 24.0 0.00 0.00 0.00 47 1011.3
20190121052805 49 288 13.0 25.0 0.00 0.00 0.00 47 1011.2
20190121052305 50 275 15.0 25.0 0.00 0.00 0.00 46 1011.3
20190121051805 50 278 13.0 22.0 0.00 0.00 0.00 46 1011.3
20190121051304 50 277 13.0 20.0 0.00 0.00 0.00 45 1011.3
20190121050804 49 279 13.0 18.0 0.00 0.00 0.00 47 1011.3
20190121050304 50 302 13.0 22.0 0.00 0.00 0.00 46 1011.3
20190121045805 49 272 17.0 24.0 0.00 0.00 0.00 46 1011.2
20190121045304 49 276 13.0 25.0 0.00 0.00 0.00 47 1011.2
20190121044804 50 289 15.0 25.0 0.00 0.00 0.00 45 1011.2
20190121044304 49 273 18.0 26.0 0.00 0.00 0.00 45 1011.1
20190121043804 49 280 18.0 28.0 0.00 0.00 0.00 45 1011.2
20190121043304 49 295 19.0 26.0 0.00 0.00 0.00 45 1011.3
20190121042804 50 282 15.0 24.0 0.00 0.00 0.00 45 1011.1
20190121042304 50 287 16.0 25.0 0.00 0.00 0.00 44 1011.2
20190121041804 50 266 15.0 23.0 0.00 0.00 0.00 44 1011.1
20190121041304 49 274 14.0 24.0 0.00 0.00 0.00 44 1011.2
20190121040804 49 276 17.0 24.0 0.00 0.00 0.00 43 1011.3
20190121040305 49 276 17.0 26.0 0.00 0.00 0.00 43 1011.3
20190121035805 50 282 17.0 24.0 0.00 0.00 0.00 42 1011.3
20190121035304 50 318 13.0 20.0 0.00 0.00 0.00 41 1011.4
20190121034804 50 284 15.0 23.0 0.00 0.00 0.00 41 1011.4
20190121034304 50 306 14.0 21.0 0.00 0.00 0.00 41 1011.5
20190121033804 50 288 14.0 23.0 0.00 0.00 0.00 42 1011.5
20190121033304 49 318 16.0 21.0 0.00 0.00 0.00 40 1011.6
20190121032804 49 322 12.0 21.0 0.00 0.00 0.00 41 1011.7
20190121032305 49 315 13.0 20.0 0.00 0.00 0.00 41 1011.8
20190121031804 49 301 13.0 20.0 0.00 0.00 0.00 40 1011.9
20190121031304 49 298 14.0 20.0 0.00 0.00 0.00 40 1012.0
20190121030804 48 326 18.0 25.0 0.00 0.00 0.00 41 1012.1
20190121030304 48 311 16.0 26.0 0.00 0.00 0.00 40 1012.1
20190121025805 49 317 17.0 25.0 0.00 0.00 0.00 40 1012.2
20190121025304 48 337 18.0 28.0 0.00 0.00 0.00 39 1012.3
20190121024804 48 313 16.0 26.0 0.00 0.00 0.00 40 1012.4
20190121024304 48 318 16.0 25.0 0.00 0.00 0.00 40 1012.4
20190121023805 48 329 15.0 23.0 0.00 0.00 0.00 39 1012.5
20190121023304 48 305 17.0 25.0 0.00 0.00 0.00 39 1012.5
20190121022805 48 330 17.0 25.0 0.00 0.00 0.00 39 1012.5
20190121022304 49 312 14.0 22.0 0.00 0.00 0.00 38 1012.7
20190121021805 48 308 13.0 20.0 0.00 0.00 0.00 40 1012.6
20190121021305 48 294 15.0 25.0 0.00 0.00 0.00 42 1012.7
20190121020804 48 313 16.0 24.0 0.00 0.00 0.00 41 1012.9
20190121020304 48 291 14.0 22.0 0.00 0.00 0.00 42 1013.1
20190121015805 48 310 13.0 21.0 0.00 0.00 0.00 42 1013.2
20190121015304 48 315 14.0 24.0 0.00 0.00 0.00 42 1013.4
20190121014804 47 327 14.0 21.0 0.00 0.00 0.00 42 1013.3
20190121014304 47 312 18.0 24.0 0.00 0.00 0.00 41 1013.5
20190121013804 47 328 17.0 24.0 0.00 0.00 0.00 42 1013.5
20190121013304 47 322 16.0 23.0 0.00 0.00 0.00 41 1013.5
20190121012805 47 316 16.0 24.0 0.00 0.00 0.00 42 1013.5
20190121012304 47 323 16.0 22.0 0.00 0.00 0.00 43 1013.6
20190121011805 47 302 12.0 21.0 0.00 0.00 0.00 43 1013.6
20190121011304 47 317 11.0 15.0 0.00 0.00 0.00 43 1013.5
20190121010804 46 308 14.0 20.0 0.00 0.00 0.00 43 1013.6
20190121010305 46 288 14.0 20.0 0.00 0.00 0.00 44 1013.8
20190121005804 46 322 11.0 21.0 0.00 0.00 0.00 44 1013.8
20190121005304 46 321 13.0 18.0 0.00 0.00 0.00 47 1013.8
20190121004804 46 291 11.0 16.0 0.00 0.00 0.00 47 1013.9
20190121004304 45 305 13.0 20.0 0.00 0.00 0.00 47 1013.9
20190121003804 45 288 12.0 17.0 0.00 0.00 0.00 48 1013.8
20190121003304 45 308 10.0 17.0 0.00 0.00 0.00 50 1013.8
20190121002805 45 278 10.0 16.0 0.00 0.00 0.00 49 1013.9
20190121002304 44 314 12.0 20.0 0.00 0.00 0.00 50 1013.8
20190121001804 44 302 8.0 13.0 0.00 0.00 0.00 52 1013.8
20190121001304 44 293 10.0 17.0 0.00 0.00 0.00 52 1013.8
20190121000804 44 295 12.0 16.0 0.00 0.00 0.00 52 1013.7
20190121000304 44 270 13.0 17.0 0.00 0.00 0.00 53 1013.7
20190120235804 43 281 13.0 24.0 0.00 0.00 0.00 54 1013.7
20190120235304 43 285 14.0 21.0 0.00 0.00 0.00 55 1013.7
20190120234805 43 285 12.0 20.0 0.00 0.00 0.00 56 1013.6
20190120234304 43 293 13.0 20.0 0.00 0.00 0.00 56 1013.6
20190120233804 43 268 10.0 21.0 0.00 0.00 0.00 57 1013.6
20190120233304 42 273 10.0 17.0 0.00 0.00 0.00 58 1013.6
20190120232804 42 285 13.0 18.0 0.00 0.00 0.00 57 1013.5
20190120232304 42 266 9.0 15.0 0.00 0.00 0.00 59 1013.5
20190120231805 42 263 12.0 16.0 0.00 0.00 0.00 59 1013.5
20190120231303 42 268 11.0 15.0 0.00 0.00 0.00 60 1013.4
20190120230804 42 268 10.0 14.0 0.00 0.00 0.00 61 1013.3
20190120230304 41 262 10.0 15.0 0.00 0.00 0.00 61 1013.2
20190120225805 41 260 9.0 14.0 0.00 0.00 0.00 61 1013.1
20190120225304 41 277 10.0 14.0 0.00 0.00 0.00 61 1013.1
20190120224804 41 266 9.0 15.0 0.00 0.00 0.00 62 1013.1
20190120224303 41 278 10.0 15.0 0.00 0.00 0.00 62 1013.1
20190120223804 41 267 10.0 14.0 0.00 0.00 0.00 62 1013.1
20190120223304 41 285 9.0 13.0 0.00 0.00 0.00 63 1013.0
20190120222804 40 264 9.0 14.0 0.00 0.00 0.00 64 1013.0
20190120222305 40 277 9.0 12.0 0.00 0.00 0.00 64 1013.0
20190120221804 40 275 9.0 12.0 0.00 0.00 0.00 64 1012.9
20190120221304 40 274 9.0 15.0 0.00 0.00 0.00 64 1012.9
20190120220804 40 256 12.0 15.0 0.00 0.00 0.00 64 1012.8
20190120220304 40 284 9.0 14.0 0.00 0.00 0.00 64 1012.6
20190120215804 40 281 8.0 14.0 0.00 0.00 0.00 63 1012.5
20190120215304 40 276 10.0 14.0 0.00 0.00 0.00 62 1012.5
20190120214804 40 280 7.0 14.0 0.00 0.00 0.00 63 1012.3
20190120214304 40 267 9.0 12.0 0.00 0.00 0.00 62 1012.3
20190120213804 40 260 10.0 13.0 0.00 0.00 0.00 63 1012.3
20190120213304 40 262 9.0 13.0 0.00 0.00 0.00 63 1012.2
20190120212804 40 282 9.0 13.0 0.00 0.00 0.00 64 1012.1
20190120212304 40 266 10.0 13.0 0.00 0.00 0.00 65 1012.1
20190120211804 40 257 8.0 15.0 0.00 0.00 0.00 66 1012.1
20190120211304 40 256 9.0 13.0 0.00 0.00 0.00 67 1012.0
20190120210804 40 256 10.0 14.0 0.00 0.00 0.00 67 1012.0
20190120210304 40 264 9.0 15.0 0.00 0.00 0.00 68 1011.9
20190120205804 40 265 11.0 17.0 0.00 0.00 0.00 68 1011.9
20190120205304 40 270 10.0 16.0 0.00 0.00 0.00 69 1011.8
20190120204804 41 267 10.0 15.0 0.00 0.00 0.00 69 1011.7
20190120204304 41 266 10.0 17.0 0.00 0.00 0.00 69 1011.7
20190120203804 41 266 10.0 17.0 0.00 0.00 0.00 68 1011.7
20190120203304 41 263 9.0 16.0 0.00 0.00 0.00 69 1011.6
20190120202804 41 265 9.0 14.0 0.00 0.00 0.00 69 1011.5
20190120202304 41 267 9.0 14.0 0.00 0.00 0.00 70 1011.4
20190120201804 41 258 9.0 15.0 0.00 0.00 0.00 71 1011.3
20190120201304 41 271 8.0 12.0 0.00 0.00 0.00 71 1011.2
20190120200804 41 270 9.0 14.0 0.00 0.00 0.00 71 1011.2
20190120200308 41 255 8.0 12.0 0.00 0.00 0.00 72 1011.2
20190120195804 41 264 9.0 15.0 0.00 0.00 0.00 72 1011.1
20190120195304 41 266 9.0 14.0 0.00 0.00 0.00 72 1010.9
20190120194804 41 263 9.0 13.0 0.00 0.00 0.00 72 1010.9
20190120194304 41 258 8.0 12.0 0.00 0.00 0.00 72 1010.9
20190120193804 41 275 9.0 14.0 0.00 0.00 0.00 71 1010.9
20190120193304 41 263 11.0 16.0 0.00 0.00 0.00 71 1010.9
20190120192804 41 256 12.0 16.0 0.00 0.00 0.00 72 1010.9
20190120192304 41 259 12.0 16.0 0.00 0.00 0.00 72 1010.8
20190120191804 42 267 12.0 16.0 0.00 0.00 0.00 72 1010.8
20190120191304 42 256 13.0 17.0 0.00 0.00 0.00 72 1010.8
20190120190804 42 263 14.0 20.0 0.00 0.00 0.00 72 1010.7
20190120190304 42 261 13.0 21.0 0.00 0.00 0.00 73 1010.6
20190120185804 42 251 12.0 20.0 0.00 0.00 0.00 73 1010.6
20190120185304 42 261 12.0 17.0 0.00 0.00 0.00 72 1010.5
20190120184805 42 264 11.0 15.0 0.00 0.00 0.00 72 1010.3
20190120184304 42 262 12.0 16.0 0.00 0.00 0.00 72 1010.2
20190120183804 42 268 12.0 17.0 0.00 0.00 0.00 73 1010.2
20190120183304 42 266 9.0 12.0 0.00 0.00 0.00 72 1010.1
20190120182804 42 266 10.0 15.0 0.00 0.00 0.00 72 1010.0
20190120182305 42 282 10.0 15.0 0.00 0.00 0.00 72 1009.9
20190120181804 42 272 11.0 16.0 0.00 0.00 0.00 72 1009.8
20190120181304 42 265 9.0 13.0 0.00 0.00 0.00 73 1009.8
20190120180804 42 260 9.0 14.0 0.00 0.00 0.00 73 1009.8
20190120180304 43 257 12.0 16.0 0.00 0.00 0.00 72 1009.7
20190120175804 43 263 12.0 17.0 0.00 0.00 0.00 72 1009.7
20190120175304 43 260 12.0 15.0 0.00 0.00 0.00 72 1009.7
20190120174804 43 265 12.0 18.0 0.00 0.00 0.00 72 1009.6
20190120174304 43 261 12.0 20.0 0.00 0.00 0.00 72 1009.6
20190120173805 43 275 13.0 18.0 0.00 0.00 0.00 72 1009.6
20190120173304 43 273 12.0 18.0 0.00 0.00 0.00 72 1009.6
20190120172804 43 267 10.0 15.0 0.00 0.00 0.00 72 1009.5
20190120172304 43 257 13.0 17.0 0.00 0.00 0.00 72 1009.4
20190120171805 43 258 10.0 14.0 0.00 0.00 0.00 72 1009.4
20190120171304 43 270 10.0 14.0 0.00 0.00 0.00 72 1009.4
20190120170805 43 277 11.0 18.0 0.00 0.00 0.00 72 1009.3
20190120170304 44 259 12.0 20.0 0.00 0.00 0.00 72 1009.2
20190120165805 44 262 12.0 17.0 0.00 0.00 0.00 72 1009.0
20190120165305 44 270 11.0 18.0 0.00 0.00 0.00 72 1009.1
20190120164804 44 266 12.0 20.0 0.00 0.00 0.00 72 1009.0
20190120164304 44 261 13.0 20.0 0.00 0.00 0.00 72 1009.0
20190120163804 44 268 12.0 17.0 0.00 0.00 0.00 72 1009.0
20190120163304 44 267 11.0 16.0 0.00 0.00 0.00 73 1009.1
20190120162804 44 265 12.0 17.0 0.00 0.00 0.00 73 1009.1
20190120162305 44 264 11.0 15.0 0.00 0.00 0.00 73 1009.1
20190120161804 44 261 11.0 17.0 0.00 0.00 0.00 71 1008.9
20190120161305 45 283 13.0 17.0 0.00 0.00 0.00 70 1008.7
20190120160804 45 279 11.0 29.0 0.00 0.00 0.00 70 1008.6
20190120160304 45 276 12.0 18.0 0.00 0.00 0.00 69 1008.6
20190120155804 45 281 11.0 17.0 0.00 0.00 0.00 68 1008.6
20190120155305 45 273 11.0 20.0 0.00 0.00 0.00 68 1008.5
20190120154806 45 278 10.0 17.0 0.00 0.00 0.00 67 1008.4
20190120154305 45 284 11.0 17.0 0.00 0.00 0.00 66 1008.5
20190120153804 46 298 9.0 16.0 0.00 0.00 0.00 65 1008.5
20190120153304 46 281 13.0 18.0 0.00 0.00 0.00 64 1008.6
20190120152804 46 296 11.0 20.0 0.00 0.00 0.00 63 1008.5
20190120152305 46 278 14.0 20.0 0.00 0.00 0.00 62 1008.3
20190120151804 46 288 11.0 17.0 0.00 0.00 0.00 62 1008.3
20190120151306 46 285 10.0 18.0 0.00 0.00 0.00 63 1008.3
20190120150804 46 299 12.0 16.0 0.00 0.00 0.00 63 1008.2
20190120150304 46 295 9.0 15.0 0.00 0.00 0.00 65 1008.2
20190120145804 46 307 8.0 15.0 0.00 0.00 0.00 65 1008.1
20190120145304 46 291 10.0 16.0 0.00 0.00 0.00 65 1008.2
20190120144804 46 296 10.0 16.0 0.00 0.00 0.00 66 1008.1
20190120144304 46 280 7.0 15.0 0.00 0.00 0.00 67 1008.3
20190120143804 47 301 13.0 26.0 0.00 0.00 0.00 65 1008.3
20190120143304 46 290 12.0 20.0 0.00 0.00 0.00 66 1008.3
20190120142804 46 303 13.0 20.0 0.00 0.00 0.00 68 1008.3
20190120142304 46 297 11.0 15.0 0.00 0.00 0.00 70 1008.3
20190120141807 46 285 11.0 17.0 0.00 0.00 0.00 71 1008.3
20190120141304 46 295 8.0 16.0 0.00 0.00 0.00 72 1008.3
20190120140804 46 286 10.0 15.0 0.00 0.00 0.00 72 1008.2
20190120140304 46 283 11.0 20.0 0.00 0.00 0.00 72 1008.1
20190120135804 46 290 10.0 17.0 0.00 0.00 0.00 72 1008.1
20190120135305 46 285 12.0 17.0 0.00 0.00 0.00 73 1007.9
20190120134805 46 283 11.0 17.0 0.00 0.00 0.00 75 1008.0
20190120134304 46 277 11.0 17.0 0.00 0.00 0.00 75 1008.0
20190120133804 46 268 10.0 14.0 0.00 0.00 0.00 74 1007.8
20190120133307 46 263 12.0 15.0 0.00 0.00 0.00 74 1007.8
20190120132805 46 270 11.0 15.0 0.00 0.00 0.00 74 1007.9
20190120132304 46 265 12.0 17.0 0.00 0.00 0.00 74 1007.9
20190120131804 46 274 9.0 16.0 0.00 0.00 0.00 74 1007.8
20190120131304 46 283 10.0 16.0 0.00 0.00 0.00 74 1007.9
20190120130804 46 283 9.0 14.0 0.00 0.00 0.00 75 1007.8
20190120130304 46 276 10.0 16.0 0.00 0.00 0.00 74 1007.7
20190120125804 46 284 10.0 17.0 0.00 0.00 0.00 74 1007.8
20190120125304 46 274 11.0 17.0 0.00 0.00 0.00 74 1007.7
20190120124805 47 280 9.0 14.0 0.00 0.00 0.00 74 1007.6
20190120124305 47 280 12.0 20.0 0.00 0.00 0.00 73 1007.7
20190120123804 47 272 14.0 20.0 0.00 0.00 0.00 73 1007.7